Time;durP1;ratioP1;P1;durP2;ratioP2;P2;SDS_P1;SDS_P2;PMS_P1;PMS_P2;Temp;Humidity;BMP_temperature;BMP_pressure;BME280_temperature;BME280_humidity;BME280_pressure;Samples;Min_cycle;Max_cycle;Signal;HPM_P1;HPM_P2
2024/03/25 00:01:36;;;;;;;6.57;4.53;;;;;;;9.69;58.25;94912.28;5053246;28;20275;-75
2024/03/25 00:04:02;;;;;;;5.70;5.00;;;;;;;9.52;58.56;94911.28;5052173;28;20194;-75
2024/03/25 00:06:33;;;;;;;5.10;4.33;;;;;;;9.62;58.45;94904.03;5053474;28;20205;-75
2024/03/25 00:08:59;;;;;;;4.10;3.70;;;;;;;9.70;58.59;94905.88;5053714;28;20685;-75
2024/03/25 00:11:25;;;;;;;5.33;3.93;;;;;;;9.37;58.90;94917.13;5054169;28;20220;-75
2024/03/25 00:13:51;;;;;;;4.37;3.57;;;;;;;9.41;58.58;94910.09;5053466;28;20249;-75
2024/03/25 00:16:18;;;;;;;8.87;7.97;;;;;;;9.37;59.04;94914.47;5049798;28;20197;-76
2024/03/25 00:18:45;;;;;;;17.33;15.13;;;;;;;9.22;59.58;94894.53;5033464;28;20207;-75
2024/03/25 00:21:12;;;;;;;9.60;8.70;;;;;;;9.12;59.48;94897.53;5033192;28;20317;-76
2024/03/25 00:23:38;;;;;;;7.70;6.57;;;;;;;9.03;60.14;94897.56;5033739;28;20195;-76
2024/03/25 00:26:05;;;;;;;4.30;3.90;;;;;;;9.05;59.98;94908.63;5033471;28;20728;-76
2024/03/25 00:28:31;;;;;;;6.60;3.93;;;;;;;9.37;59.75;94913.69;5033759;28;20623;-75
2024/03/25 00:30:57;;;;;;;3.50;3.20;;;;;;;9.40;59.47;94907.72;5033201;28;20201;-76
2024/03/25 00:33:24;;;;;;;4.30;3.80;;;;;;;9.50;59.31;94905.50;5033091;28;20203;-76
2024/03/25 00:35:52;;;;;;;5.20;3.63;;;;;;;9.62;58.59;94901.38;5034211;28;20261;-76
2024/03/25 00:38:19;;;;;;;5.07;4.57;;;;;;;9.20;59.81;94893.28;5047409;28;20191;-76
2024/03/25 00:40:46;;;;;;;16.37;14.70;;;;;;;9.25;60.23;94893.91;5051008;28;20765;-76
2024/03/25 00:43:12;;;;;;;8.40;6.60;;;;;;;9.37;59.26;94890.59;5052720;28;20202;-76
2024/03/25 00:45:39;;;;;;;19.87;16.43;;;;;;;9.41;59.85;94883.53;5053139;28;20619;-76
2024/03/25 00:48:06;;;;;;;11.17;9.33;;;;;;;9.22;60.11;94865.34;5052649;28;20252;-75
2024/03/25 00:50:32;;;;;;;8.47;6.50;;;;;;;9.45;59.63;94895.06;5053274;28;20233;-76
2024/03/25 00:53:00;;;;;;;11.03;4.47;;;;;;;9.29;60.09;94889.53;5052309;28;20664;-76
2024/03/25 00:55:26;;;;;;;10.80;9.20;;;;;;;9.43;59.51;94889.28;5051733;28;20216;-75
2024/03/25 00:57:52;;;;;;;7.13;6.03;;;;;;;9.41;59.05;94882.72;5050954;28;20623;-76
2024/03/25 01:00:20;;;;;;;8.83;4.60;;;;;;;9.34;59.45;94887.78;5051130;28;20218;-76
2024/03/25 01:02:45;;;;;;;4.57;4.17;;;;;;;9.44;59.10;94882.88;5052627;28;20212;-76
2024/03/25 01:05:12;;;;;;;5.90;4.60;;;;;;;9.25;59.11;94867.38;5052762;28;20193;-76
2024/03/25 01:07:39;;;;;;;6.37;4.40;;;;;;;9.11;59.59;94848.22;5051388;28;20197;-76
2024/03/25 01:10:08;;;;;;;5.07;4.67;;;;;;;9.20;60.00;94859.56;5051276;28;20289;-76
2024/03/25 01:12:33;;;;;;;7.77;6.30;;;;;;;9.36;59.53;94853.72;5052292;28;20259;-76
2024/03/25 01:15:02;;;;;;;8.87;6.77;;;;;;;9.31;60.31;94846.72;5040392;28;20194;-76
2024/03/25 01:17:28;;;;;;;6.20;5.60;;;;;;;9.19;60.62;94844.75;5032295;28;20204;-76
2024/03/25 01:19:54;;;;;;;8.07;4.30;;;;;;;9.28;60.54;94857.97;5032718;28;20206;-76
2024/03/25 01:22:20;;;;;;;4.67;3.73;;;;;;;9.36;60.20;94849.19;5030755;28;20206;-76
2024/03/25 01:24:47;;;;;;;3.77;3.40;;;;;;;9.28;60.54;94844.69;5032547;28;20198;-76
2024/03/25 01:27:14;;;;;;;4.20;3.80;;;;;;;9.28;60.36;94847.34;5032203;28;20194;-75
2024/03/25 01:29:40;;;;;;;4.10;3.70;;;;;;;9.31;60.28;94836.09;5034897;28;20202;-76
2024/03/25 01:32:06;;;;;;;3.93;3.50;;;;;;;9.21;60.34;94825.84;5052450;28;20198;-76
2024/03/25 01:34:33;;;;;;;4.60;4.20;;;;;;;9.29;60.50;94812.53;5050892;28;20264;-76
2024/03/25 01:36:59;;;;;;;4.27;3.87;;;;;;;9.43;59.40;94809.63;5051881;28;20209;-76
2024/03/25 01:39:26;;;;;;;3.90;3.57;;;;;;;9.53;58.99;94803.94;5050379;28;20202;-76
2024/03/25 01:41:52;;;;;;;4.90;4.50;;;;;;;9.34;59.76;94813.44;5051732;28;20693;-76
2024/03/25 01:44:20;;;;;;;3.80;3.43;;;;;;;9.39;59.39;94814.03;5052131;28;20201;-76
2024/03/25 01:46:45;;;;;;;3.63;3.20;;;;;;;9.38;59.62;94817.78;5052402;28;20263;-75
2024/03/25 01:49:12;;;;;;;4.67;3.70;;;;;;;9.28;60.08;94808.31;5050838;28;20194;-76
2024/03/25 01:51:39;;;;;;;3.50;3.20;;;;;;;9.44;59.43;94818.38;5052286;28;20193;-76
2024/03/25 01:54:07;;;;;;;4.33;3.93;;;;;;;9.42;59.35;94825.88;5049798;28;20689;-76
2024/03/25 01:56:35;;;;;;;3.30;2.90;;;;;;;9.37;59.61;94826.06;5051177;28;20668;-76
2024/03/25 01:59:02;;;;;;;4.93;3.77;;;;;;;9.40;59.75;94812.91;5051456;28;20235;-75
2024/03/25 02:01:29;;;;;;;3.50;3.17;;;;;;;9.42;60.05;94816.03;5051614;28;20640;-76
2024/03/25 02:03:57;;;;;;;3.70;3.40;;;;;;;9.25;59.83;94800.19;5051571;28;20201;-75
2024/03/25 02:06:26;;;;;;;5.37;3.50;;;;;;;9.15;60.01;94766.09;5049441;28;20671;-77
2024/03/25 02:08:54;;;;;;;3.83;3.27;;;;;;;9.37;59.98;94800.31;5051535;28;20208;-75
2024/03/25 02:11:19;;;;;;;4.10;3.50;;;;;;;9.28;60.64;94796.91;5051998;28;20256;-76
2024/03/25 02:13:46;;;;;;;2.93;2.70;;;;;;;9.50;60.30;94791.31;5050074;28;20612;-76
2024/03/25 02:16:12;;;;;;;3.33;3.07;;;;;;;9.49;60.51;94781.78;5051495;28;20202;-75
2024/03/25 02:18:40;;;;;;;2.83;2.63;;;;;;;9.48;60.63;94782.88;5051728;28;20280;-75
2024/03/25 02:21:06;;;;;;;3.53;3.07;;;;;;;9.24;61.01;94777.41;5051244;28;20228;-76
2024/03/25 02:23:35;;;;;;;3.70;3.40;;;;;;;9.20;61.47;94771.19;5052038;28;20214;-76
2024/03/25 02:26:02;;;;;;;3.93;3.00;;;;;;;9.13;62.14;94766.38;5049965;28;20797;-76
2024/03/25 02:28:29;;;;;;;3.40;3.10;;;;;;;9.10;62.26;94782.97;5050464;28;20209;-76
2024/03/25 02:30:55;;;;;;;2.97;2.67;;;;;;;9.19;62.09;94786.34;5051703;28;20201;-76
2024/03/25 02:33:22;;;;;;;2.90;2.40;;;;;;;9.14;62.37;94796.34;5051322;28;20228;-76
2024/03/25 02:35:48;;;;;;;3.13;2.83;;;;;;;9.05;62.47;94786.56;5050618;28;20202;-77
2024/03/25 02:38:17;;;;;;;2.87;2.67;;;;;;;9.07;62.48;94796.88;5051339;28;20675;-76
2024/03/25 02:40:43;;;;;;;3.20;2.90;;;;;;;9.00;63.03;94796.59;5050002;28;20231;-77
2024/03/25 02:43:13;;;;;;;2.63;2.43;;;;;;;8.91;63.45;94795.88;5050475;28;20653;-77
2024/03/25 02:45:39;;;;;;;3.63;2.97;;;;;;;8.80;64.99;94811.34;5051388;28;20288;-77
2024/03/25 02:48:06;;;;;;;3.13;2.83;;;;;;;8.61;67.25;94810.94;5051067;28;20237;-76
2024/03/25 02:50:32;;;;;;;3.53;2.93;;;;;;;8.33;69.03;94813.94;5051084;28;20206;-76
2024/03/25 02:52:59;;;;;;;3.87;3.47;;;;;;;8.11;70.81;94841.41;5050068;28;20202;-78
2024/03/25 02:55:24;;;;;;;3.87;3.10;;;;;;;7.81;71.42;94864.28;5051121;28;20194;-79
2024/03/25 02:57:53;;;;;;;3.37;2.93;;;;;;;7.90;72.81;94907.47;5051448;28;20602;-79
2024/03/25 03:00:20;;;;;;;3.50;3.20;;;;;;;7.67;74.03;94892.78;5051124;28;20198;-81
2024/03/25 03:02:47;;;;;;;3.53;3.10;;;;;;;7.68;75.03;94915.53;5051387;28;20275;-79
2024/03/25 03:05:13;;;;;;;4.60;4.00;;;;;;;7.29;75.79;94888.78;5049545;28;20198;-80
2024/03/25 03:07:40;;;;;;;2.57;2.33;;;;;;;6.90;76.83;94925.81;5051083;28;20216;-80
2024/03/25 03:10:06;;;;;;;1.87;1.73;;;;;;;6.71;78.41;94958.53;5051301;28;20208;-80
2024/03/25 03:12:33;;;;;;;1.03;1.03;;;;;;;6.59;78.11;94971.50;5050813;28;20288;-79
2024/03/25 03:14:59;;;;;;;1.40;1.30;;;;;;;6.10;78.90;94973.09;5051435;28;20277;-79
2024/03/25 03:17:27;;;;;;;2.83;1.20;;;;;;;6.26;79.20;94976.97;5052219;28;20231;-80
2024/03/25 03:19:53;;;;;;;1.60;1.13;;;;;;;6.22;78.45;94956.72;5054571;28;20661;-80
2024/03/25 03:22:20;;;;;;;0.87;0.87;;;;;;;6.42;79.01;94961.56;5053949;28;20248;-79
2024/03/25 03:24:45;;;;;;;1.43;1.33;;;;;;;6.58;78.49;94954.88;5053399;28;20205;-79
2024/03/25 03:27:12;;;;;;;1.63;1.40;;;;;;;6.64;78.66;94921.16;5054208;28;20198;-79
2024/03/25 03:29:38;;;;;;;2.40;1.77;;;;;;;6.85;77.67;94939.94;5053494;28;20198;-79
2024/03/25 03:32:05;;;;;;;1.70;1.60;;;;;;;6.64;79.41;94936.22;5053585;28;20714;-79
2024/03/25 03:34:33;;;;;;;2.10;1.70;;;;;;;6.70;79.79;94938.47;5054932;28;20194;-78
2024/03/25 03:36:59;;;;;;;1.67;1.57;;;;;;;6.60;80.09;94936.03;5054504;28;20206;-78
2024/03/25 03:39:25;;;;;;;1.70;1.60;;;;;;;6.63;80.09;94939.97;5054358;28;20617;-77
2024/03/25 03:41:52;;;;;;;1.40;1.30;;;;;;;6.74;80.19;94939.41;5053934;28;20230;-77
2024/03/25 03:44:17;;;;;;;1.50;1.30;;;;;;;6.68;78.84;94939.84;5054224;28;20198;-78
2024/03/25 03:46:44;;;;;;;9.00;1.40;;;;;;;6.51;79.56;94936.00;5053850;28;20679;-78
2024/03/25 03:49:10;;;;;;;1.97;1.40;;;;;;;6.74;80.26;94949.22;5054508;28;20205;-79
2024/03/25 03:51:38;;;;;;;1.13;1.13;;;;;;;6.60;79.80;94951.91;5053691;28;20584;-79
2024/03/25 03:54:04;;;;;;;1.73;1.47;;;;;;;6.59;79.27;94943.19;5051990;28;20205;-78
2024/03/25 03:56:31;;;;;;;1.77;1.10;;;;;;;6.48;79.66;94930.53;5054322;28;20201;-79
2024/03/25 03:58:56;;;;;;;1.73;1.03;;;;;;;6.51;79.89;94929.94;5052137;28;20228;-78
2024/03/25 04:01:23;;;;;;;1.23;0.93;;;;;;;6.35;80.18;94932.94;5053761;28;20218;-79
2024/03/25 04:03:49;;;;;;;1.53;0.60;;;;;;;6.38;80.05;94934.16;5052443;28;20201;-78
2024/03/25 04:06:16;;;;;;;0.60;0.60;;;;;;;6.61;79.31;94927.81;5040915;28;20574;-78
2024/03/25 04:08:43;;;;;;;0.60;0.60;;;;;;;6.42;79.34;94921.91;5033736;28;20202;-79
2024/03/25 04:11:13;;;;;;;0.40;0.40;;;;;;;6.17;79.97;94901.38;5048925;28;20210;-79
2024/03/25 04:13:39;;;;;;;0.70;0.70;;;;;;;6.30;80.69;94921.69;5053503;28;20260;-78
2024/03/25 04:16:07;;;;;;;0.30;0.30;;;;;;;6.32;79.59;94924.81;5052809;28;20225;-77
2024/03/25 04:18:33;;;;;;;0.60;0.60;;;;;;;6.31;80.46;94924.03;5053211;28;20225;-79
2024/03/25 04:21:00;;;;;;;0.23;0.23;;;;;;;6.31;80.04;94902.09;5053653;28;20220;-80
2024/03/25 04:23:26;;;;;;;0.57;0.40;;;;;;;6.50;79.84;94923.84;5051959;28;20680;-79
2024/03/25 04:25:54;;;;;;;0.50;0.50;;;;;;;6.26;80.04;94910.16;5053455;28;20252;-79
2024/03/25 04:28:20;;;;;;;1.17;0.70;;;;;;;6.27;80.92;94917.78;5052930;28;20202;-79
2024/03/25 04:30:52;;;;;;;0.67;0.50;;;;;;;6.35;81.11;94932.16;5053181;28;20193;-77
2024/03/25 04:33:18;;;;;;;0.50;0.50;;;;;;;6.49;79.94;94935.50;5035467;28;20716;-78
2024/03/25 04:35:46;;;;;;;0.60;0.60;;;;;;;6.47;80.53;94932.38;5033085;28;20199;-78
